sensor_id;sensor_type;location;lat;lon;timestamp;P1;durP1;ratioP1;P2;durP2;ratioP2
65039;SDS011;51606;45.000;38.612;2023-06-14T00:02:13;5.88;;;2.78;;
65039;SDS011;51606;45.000;38.612;2023-06-14T00:04:40;6.57;;;3.13;;
65039;SDS011;51606;45.000;38.612;2023-06-14T00:07:07;6.53;;;3.20;;
65039;SDS011;51606;45.000;38.612;2023-06-14T00:09:34;11.57;;;3.47;;
65039;SDS011;51606;45.000;38.612;2023-06-14T00:12:04;5.40;;;3.70;;
65039;SDS011;51606;45.000;38.612;2023-06-14T00:14:31;7.30;;;4.60;;
65039;SDS011;51606;45.000;38.612;2023-06-14T00:16:58;3.83;;;3.08;;
65039;SDS011;51606;45.000;38.612;2023-06-14T00:19:24;15.02;;;5.00;;
65039;SDS011;51606;45.000;38.612;2023-06-14T00:21:51;6.72;;;4.35;;
65039;SDS011;51606;45.000;38.612;2023-06-14T00:24:19;9.45;;;3.30;;
65039;SDS011;51606;45.000;38.612;2023-06-14T00:26:46;13.27;;;4.90;;
65039;SDS011;51606;45.000;38.612;2023-06-14T00:29:13;9.95;;;2.88;;
65039;SDS011;51606;45.000;38.612;2023-06-14T00:31:39;9.25;;;3.35;;
65039;SDS011;51606;45.000;38.612;2023-06-14T00:34:06;10.93;;;3.85;;
65039;SDS011;51606;45.000;38.612;2023-06-14T00:36:32;6.70;;;3.97;;
65039;SDS011;51606;45.000;38.612;2023-06-14T00:38:59;7.18;;;4.57;;
65039;SDS011;51606;45.000;38.612;2023-06-14T00:41:25;12.93;;;3.65;;
65039;SDS011;51606;45.000;38.612;2023-06-14T00:43:52;7.43;;;4.05;;
65039;SDS011;51606;45.000;38.612;2023-06-14T00:46:22;7.20;;;3.40;;
65039;SDS011;51606;45.000;38.612;2023-06-14T00:48:48;4.30;;;3.20;;
65039;SDS011;51606;45.000;38.612;2023-06-14T00:51:15;5.78;;;3.67;;
65039;SDS011;51606;45.000;38.612;2023-06-14T02:21:12;11.48;;;3.47;;
65039;SDS011;51606;45.000;38.612;2023-06-14T02:23:39;15.90;;;3.38;;
65039;SDS011;51606;45.000;38.612;2023-06-14T02:26:06;8.02;;;4.07;;
65039;SDS011;51606;45.000;38.612;2023-06-14T02:28:33;7.30;;;3.35;;
65039;SDS011;51606;45.000;38.612;2023-06-14T02:31:01;5.45;;;3.30;;
65039;SDS011;51606;45.000;38.612;2023-06-14T02:33:28;6.38;;;3.65;;
65039;SDS011;51606;45.000;38.612;2023-06-14T02:35:54;5.72;;;3.50;;
65039;SDS011;51606;45.000;38.612;2023-06-14T02:38:22;5.95;;;2.92;;
65039;SDS011;51606;45.000;38.612;2023-06-14T02:40:48;3.08;;;2.55;;
65039;SDS011;51606;45.000;38.612;2023-06-14T02:43:15;4.75;;;3.08;;
65039;SDS011;51606;45.000;38.612;2023-06-14T02:45:43;4.93;;;2.78;;
65039;SDS011;51606;45.000;38.612;2023-06-14T02:48:09;8.40;;;4.32;;
65039;SDS011;51606;45.000;38.612;2023-06-14T02:50:36;5.05;;;3.03;;
65039;SDS011;51606;45.000;38.612;2023-06-14T02:53:03;4.55;;;3.15;;
65039;SDS011;51606;45.000;38.612;2023-06-14T02:55:29;3.53;;;2.40;;
65039;SDS011;51606;45.000;38.612;2023-06-14T02:57:56;6.00;;;2.70;;
65039;SDS011;51606;45.000;38.612;2023-06-14T03:00:22;3.50;;;2.30;;
65039;SDS011;51606;45.000;38.612;2023-06-14T03:02:50;5.18;;;2.75;;
65039;SDS011;51606;45.000;38.612;2023-06-14T03:05:17;7.50;;;3.17;;
65039;SDS011;51606;45.000;38.612;2023-06-14T03:07:48;5.60;;;2.83;;
65039;SDS011;51606;45.000;38.612;2023-06-14T03:10:17;4.40;;;3.20;;
65039;SDS011;51606;45.000;38.612;2023-06-14T03:12:44;5.72;;;2.90;;
65039;SDS011;51606;45.000;38.612;2023-06-14T03:15:11;11.30;;;3.30;;
65039;SDS011;51606;45.000;38.612;2023-06-14T03:17:42;11.23;;;4.32;;
65039;SDS011;51606;45.000;38.612;2023-06-14T03:20:12;6.65;;;3.53;;
65039;SDS011;51606;45.000;38.612;2023-06-14T03:22:38;4.53;;;2.83;;
65039;SDS011;51606;45.000;38.612;2023-06-14T03:25:06;9.40;;;2.72;;
65039;SDS011;51606;45.000;38.612;2023-06-14T03:27:36;3.20;;;2.33;;
65039;SDS011;51606;45.000;38.612;2023-06-14T03:30:04;8.88;;;3.40;;
65039;SDS011;51606;45.000;38.612;2023-06-14T03:32:31;8.32;;;3.00;;
65039;SDS011;51606;45.000;38.612;2023-06-14T03:34:59;5.43;;;2.42;;
65039;SDS011;51606;45.000;38.612;2023-06-14T03:37:26;4.00;;;2.30;;
65039;SDS011;51606;45.000;38.612;2023-06-14T03:39:52;7.53;;;2.00;;
65039;SDS011;51606;45.000;38.612;2023-06-14T03:42:22;4.07;;;2.22;;
65039;SDS011;51606;45.000;38.612;2023-06-14T03:44:49;16.65;;;3.22;;
65039;SDS011;51606;45.000;38.612;2023-06-14T03:47:20;19.48;;;3.58;;
65039;SDS011;51606;45.000;38.612;2023-06-14T03:49:47;7.70;;;2.42;;
65039;SDS011;51606;45.000;38.612;2023-06-14T03:52:14;11.90;;;2.70;;
65039;SDS011;51606;45.000;38.612;2023-06-14T03:54:44;18.42;;;3.47;;
65039;SDS011;51606;45.000;38.612;2023-06-14T03:57:13;8.77;;;3.75;;
65039;SDS011;51606;45.000;38.612;2023-06-14T03:59:41;8.82;;;4.10;;
65039;SDS011;51606;45.000;38.612;2023-06-14T04:02:07;6.88;;;3.67;;
65039;SDS011;51606;45.000;38.612;2023-06-14T04:04:40;6.22;;;3.15;;
65039;SDS011;51606;45.000;38.612;2023-06-14T04:07:13;4.80;;;2.67;;
65039;SDS011;51606;45.000;38.612;2023-06-14T04:09:41;5.55;;;2.47;;
65039;SDS011;51606;45.000;38.612;2023-06-14T04:12:07;10.45;;;2.40;;
65039;SDS011;51606;45.000;38.612;2023-06-14T04:14:34;5.53;;;2.75;;
65039;SDS011;51606;45.000;38.612;2023-06-14T04:17:01;2.38;;;1.90;;
65039;SDS011;51606;45.000;38.612;2023-06-14T04:19:27;8.80;;;2.45;;
65039;SDS011;51606;45.000;38.612;2023-06-14T04:21:53;4.55;;;2.45;;
65039;SDS011;51606;45.000;38.612;2023-06-14T04:24:21;3.13;;;2.38;;
65039;SDS011;51606;45.000;38.612;2023-06-14T04:26:48;10.00;;;2.55;;
65039;SDS011;51606;45.000;38.612;2023-06-14T04:29:16;3.67;;;2.08;;
65039;SDS011;51606;45.000;38.612;2023-06-14T04:34:17;9.90;;;2.35;;
65039;SDS011;51606;45.000;38.612;2023-06-14T04:36:51;11.85;;;2.25;;
65039;SDS011;51606;45.000;38.612;2023-06-14T04:39:27;3.47;;;2.28;;
65039;SDS011;51606;45.000;38.612;2023-06-14T04:41:54;5.57;;;2.20;;
65039;SDS011;51606;45.000;38.612;2023-06-14T04:44:23;3.60;;;2.15;;
65039;SDS011;51606;45.000;38.612;2023-06-14T04:49:24;11.75;;;2.30;;
65039;SDS011;51606;45.000;38.612;2023-06-14T04:51:53;8.40;;;2.45;;
65039;SDS011;51606;45.000;38.612;2023-06-14T04:54:32;8.18;;;2.28;;
65039;SDS011;51606;45.000;38.612;2023-06-14T04:57:01;7.10;;;2.45;;
65039;SDS011;51606;45.000;38.612;2023-06-14T04:59:27;5.40;;;2.15;;
65039;SDS011;51606;45.000;38.612;2023-06-14T05:01:59;2.00;;;1.80;;
65039;SDS011;51606;45.000;38.612;2023-06-14T05:04:26;2.85;;;1.83;;
65039;SDS011;51606;45.000;38.612;2023-06-14T05:06:54;4.25;;;2.20;;
65039;SDS011;51606;45.000;38.612;2023-06-14T05:09:21;5.40;;;1.80;;
65039;SDS011;51606;45.000;38.612;2023-06-14T05:11:49;7.38;;;2.30;;
65039;SDS011;51606;45.000;38.612;2023-06-14T05:14:16;5.78;;;2.20;;
65039;SDS011;51606;45.000;38.612;2023-06-14T05:16:45;2.17;;;1.90;;
65039;SDS011;51606;45.000;38.612;2023-06-14T05:19:11;9.73;;;1.85;;
65039;SDS011;51606;45.000;38.612;2023-06-14T05:21:38;5.40;;;1.77;;
65039;SDS011;51606;45.000;38.612;2023-06-14T05:24:08;5.80;;;2.15;;
65039;SDS011;51606;45.000;38.612;2023-06-14T05:26:35;2.92;;;1.67;;
65039;SDS011;51606;45.000;38.612;2023-06-14T05:29:01;9.10;;;2.20;;
65039;SDS011;51606;45.000;38.612;2023-06-14T05:31:28;10.93;;;2.17;;
65039;SDS011;51606;45.000;38.612;2023-06-14T05:33:55;3.22;;;1.83;;
65039;SDS011;51606;45.000;38.612;2023-06-14T05:36:21;2.92;;;2.00;;
65039;SDS011;51606;45.000;38.612;2023-06-14T05:38:48;6.60;;;2.08;;
65039;SDS011;51606;45.000;38.612;2023-06-14T05:41:14;10.75;;;2.25;;
65039;SDS011;51606;45.000;38.612;2023-06-14T05:43:41;5.05;;;1.67;;
65039;SDS011;51606;45.000;38.612;2023-06-14T05:46:07;6.13;;;1.92;;
65039;SDS011;51606;45.000;38.612;2023-06-14T05:48:33;6.30;;;1.83;;
65039;SDS011;51606;45.000;38.612;2023-06-14T05:51:00;3.92;;;1.55;;
65039;SDS011;51606;45.000;38.612;2023-06-14T05:53:26;4.13;;;1.92;;
65039;SDS011;51606;45.000;38.612;2023-06-14T05:55:53;2.17;;;1.50;;
65039;SDS011;51606;45.000;38.612;2023-06-14T05:58:21;8.43;;;2.17;;
65039;SDS011;51606;45.000;38.612;2023-06-14T06:00:47;4.70;;;1.88;;
65039;SDS011;51606;45.000;38.612;2023-06-14T06:03:14;4.70;;;1.90;;
65039;SDS011;51606;45.000;38.612;2023-06-14T06:05:40;3.88;;;2.10;;
65039;SDS011;51606;45.000;38.612;2023-06-14T06:08:07;4.60;;;1.83;;
65039;SDS011;51606;45.000;38.612;2023-06-14T06:10:33;2.25;;;1.65;;
65039;SDS011;51606;45.000;38.612;2023-06-14T06:13:00;6.85;;;2.13;;
65039;SDS011;51606;45.000;38.612;2023-06-14T06:15:26;6.68;;;2.13;;
65039;SDS011;51606;45.000;38.612;2023-06-14T06:17:53;4.05;;;2.15;;
65039;SDS011;51606;45.000;38.612;2023-06-14T06:20:19;6.82;;;2.20;;
65039;SDS011;51606;45.000;38.612;2023-06-14T06:22:50;4.18;;;2.20;;
65039;SDS011;51606;45.000;38.612;2023-06-14T06:25:16;8.23;;;2.08;;
65039;SDS011;51606;45.000;38.612;2023-06-14T06:27:44;5.40;;;1.98;;
65039;SDS011;51606;45.000;38.612;2023-06-14T06:30:11;5.72;;;2.28;;
65039;SDS011;51606;45.000;38.612;2023-06-14T06:32:37;4.50;;;2.15;;
65039;SDS011;51606;45.000;38.612;2023-06-14T06:35:04;6.80;;;2.30;;
65039;SDS011;51606;45.000;38.612;2023-06-14T06:37:32;6.47;;;2.10;;
65039;SDS011;51606;45.000;38.612;2023-06-14T06:39:59;5.03;;;2.17;;
65039;SDS011;51606;45.000;38.612;2023-06-14T06:42:25;5.10;;;2.05;;
65039;SDS011;51606;45.000;38.612;2023-06-14T06:44:52;6.10;;;2.03;;
65039;SDS011;51606;45.000;38.612;2023-06-14T06:47:18;6.20;;;1.85;;
65039;SDS011;51606;45.000;38.612;2023-06-14T06:49:45;9.52;;;2.22;;
65039;SDS011;51606;45.000;38.612;2023-06-14T06:52:11;11.38;;;2.20;;
65039;SDS011;51606;45.000;38.612;2023-06-14T06:54:38;5.93;;;2.08;;
65039;SDS011;51606;45.000;38.612;2023-06-14T06:57:05;3.30;;;1.90;;
65039;SDS011;51606;45.000;38.612;2023-06-14T06:59:32;3.65;;;1.98;;
65039;SDS011;51606;45.000;38.612;2023-06-14T07:01:58;2.40;;;1.73;;
65039;SDS011;51606;45.000;38.612;2023-06-14T07:04:25;5.22;;;1.98;;
65039;SDS011;51606;45.000;38.612;2023-06-14T07:06:51;2.33;;;1.63;;
65039;SDS011;51606;45.000;38.612;2023-06-14T07:09:18;6.25;;;2.13;;
65039;SDS011;51606;45.000;38.612;2023-06-14T07:11:46;2.97;;;1.95;;
65039;SDS011;51606;45.000;38.612;2023-06-14T07:14:13;3.28;;;1.80;;
65039;SDS011;51606;45.000;38.612;2023-06-14T07:16:40;2.97;;;1.88;;
65039;SDS011;51606;45.000;38.612;2023-06-14T07:19:07;5.20;;;2.08;;
65039;SDS011;51606;45.000;38.612;2023-06-14T07:21:34;5.32;;;2.20;;
65039;SDS011;51606;45.000;38.612;2023-06-14T07:24:04;4.10;;;2.00;;
65039;SDS011;51606;45.000;38.612;2023-06-14T07:26:35;2.45;;;1.80;;
65039;SDS011;51606;45.000;38.612;2023-06-14T07:29:01;5.30;;;2.05;;
65039;SDS011;51606;45.000;38.612;2023-06-14T07:31:28;3.90;;;2.00;;
65039;SDS011;51606;45.000;38.612;2023-06-14T07:33:54;5.18;;;2.50;;
65039;SDS011;51606;45.000;38.612;2023-06-14T07:36:21;4.43;;;2.20;;
65039;SDS011;51606;45.000;38.612;2023-06-14T07:38:48;8.30;;;2.50;;
65039;SDS011;51606;45.000;38.612;2023-06-14T07:41:14;5.68;;;2.30;;
65039;SDS011;51606;45.000;38.612;2023-06-14T07:43:41;10.63;;;2.63;;
65039;SDS011;51606;45.000;38.612;2023-06-14T07:46:08;3.40;;;2.13;;
65039;SDS011;51606;45.000;38.612;2023-06-14T07:48:35;8.98;;;2.22;;
65039;SDS011;51606;45.000;38.612;2023-06-14T07:51:02;9.15;;;2.70;;
65039;SDS011;51606;45.000;38.612;2023-06-14T07:53:28;4.68;;;1.98;;
65039;SDS011;51606;45.000;38.612;2023-06-14T07:55:56;5.75;;;2.40;;
65039;SDS011;51606;45.000;38.612;2023-06-14T07:58:22;3.55;;;2.47;;
65039;SDS011;51606;45.000;38.612;2023-06-14T08:00:49;8.50;;;2.10;;
65039;SDS011;51606;45.000;38.612;2023-06-14T08:03:16;10.38;;;2.63;;
65039;SDS011;51606;45.000;38.612;2023-06-14T08:05:43;2.60;;;2.20;;
65039;SDS011;51606;45.000;38.612;2023-06-14T08:08:10;11.98;;;2.65;;
65039;SDS011;51606;45.000;38.612;2023-06-14T08:10:36;5.13;;;2.47;;
65039;SDS011;51606;45.000;38.612;2023-06-14T08:13:03;5.30;;;2.35;;
65039;SDS011;51606;45.000;38.612;2023-06-14T08:15:29;2.88;;;2.20;;
65039;SDS011;51606;45.000;38.612;2023-06-14T08:17:55;5.88;;;2.45;;
65039;SDS011;51606;45.000;38.612;2023-06-14T08:20:23;8.55;;;2.42;;
65039;SDS011;51606;45.000;38.612;2023-06-14T08:22:50;4.03;;;1.50;;
65039;SDS011;51606;45.000;38.612;2023-06-14T08:25:20;5.10;;;1.80;;
65039;SDS011;51606;45.000;38.612;2023-06-14T08:38:54;10.02;;;2.00;;
65039;SDS011;51606;45.000;38.612;2023-06-14T08:41:21;4.57;;;1.80;;
65039;SDS011;51606;45.000;38.612;2023-06-14T08:43:50;2.08;;;1.80;;
65039;SDS011;51606;45.000;38.612;2023-06-14T08:46:17;5.15;;;2.42;;
65039;SDS011;51606;45.000;38.612;2023-06-14T08:48:51;2.33;;;1.63;;
65039;SDS011;51606;45.000;38.612;2023-06-14T08:51:22;3.75;;;2.05;;
65039;SDS011;51606;45.000;38.612;2023-06-14T08:53:53;4.43;;;2.30;;
65039;SDS011;51606;45.000;38.612;2023-06-14T08:56:27;4.47;;;1.88;;
65039;SDS011;51606;45.000;38.612;2023-06-14T08:58:55;5.18;;;2.25;;
65039;SDS011;51606;45.000;38.612;2023-06-14T09:01:22;5.38;;;2.10;;
65039;SDS011;51606;45.000;38.612;2023-06-14T09:03:50;7.20;;;2.42;;
65039;SDS011;51606;45.000;38.612;2023-06-14T09:06:17;4.78;;;2.42;;
65039;SDS011;51606;45.000;38.612;2023-06-14T09:08:44;8.35;;;2.22;;
65039;SDS011;51606;45.000;38.612;2023-06-14T09:11:14;6.18;;;2.00;;
65039;SDS011;51606;45.000;38.612;2023-06-14T09:13:44;4.88;;;2.13;;
65039;SDS011;51606;45.000;38.612;2023-06-14T09:16:12;5.93;;;2.13;;
65039;SDS011;51606;45.000;38.612;2023-06-14T09:18:40;8.63;;;2.33;;
65039;SDS011;51606;45.000;38.612;2023-06-14T09:23:41;3.25;;;1.67;;
65039;SDS011;51606;45.000;38.612;2023-06-14T09:26:09;3.75;;;2.15;;
65039;SDS011;51606;45.000;38.612;2023-06-14T09:31:16;5.72;;;2.05;;
65039;SDS011;51606;45.000;38.612;2023-06-14T09:33:44;2.58;;;1.70;;
65039;SDS011;51606;45.000;38.612;2023-06-14T09:36:17;4.70;;;1.88;;
65039;SDS011;51606;45.000;38.612;2023-06-14T09:38:56;4.03;;;2.13;;
65039;SDS011;51606;45.000;38.612;2023-06-14T09:41:31;3.78;;;1.73;;
65039;SDS011;51606;45.000;38.612;2023-06-14T09:44:03;3.92;;;1.70;;
65039;SDS011;51606;45.000;38.612;2023-06-14T09:46:30;4.88;;;2.00;;
65039;SDS011;51606;45.000;38.612;2023-06-14T09:48:58;3.53;;;2.10;;
65039;SDS011;51606;45.000;38.612;2023-06-14T09:51:25;4.85;;;1.98;;
65039;SDS011;51606;45.000;38.612;2023-06-14T09:53:53;5.25;;;2.20;;
65039;SDS011;51606;45.000;38.612;2023-06-14T09:56:23;7.07;;;1.98;;
65039;SDS011;51606;45.000;38.612;2023-06-14T09:58:54;5.45;;;1.80;;
65039;SDS011;51606;45.000;38.612;2023-06-14T10:01:26;2.70;;;1.63;;
65039;SDS011;51606;45.000;38.612;2023-06-14T10:04:04;5.60;;;1.95;;
65039;SDS011;51606;45.000;38.612;2023-06-14T10:06:36;4.10;;;1.90;;
65039;SDS011;51606;45.000;38.612;2023-06-14T10:09:04;2.42;;;1.80;;
65039;SDS011;51606;45.000;38.612;2023-06-14T10:11:36;3.85;;;2.25;;
65039;SDS011;51606;45.000;38.612;2023-06-14T10:14:10;3.90;;;1.85;;
65039;SDS011;51606;45.000;38.612;2023-06-14T10:16:51;7.07;;;1.88;;
65039;SDS011;51606;45.000;38.612;2023-06-14T10:19:40;2.47;;;1.55;;
65039;SDS011;51606;45.000;38.612;2023-06-14T10:22:18;3.50;;;1.58;;
65039;SDS011;51606;45.000;38.612;2023-06-14T10:24:53;6.40;;;1.20;;
65039;SDS011;51606;45.000;38.612;2023-06-14T10:27:19;2.67;;;1.10;;
65039;SDS011;51606;45.000;38.612;2023-06-14T10:32:22;1.27;;;1.10;;
65039;SDS011;51606;45.000;38.612;2023-06-14T10:34:58;1.63;;;1.33;;
65039;SDS011;51606;45.000;38.612;2023-06-14T10:37:35;3.75;;;1.15;;
65039;SDS011;51606;45.000;38.612;2023-06-14T10:40:01;1.83;;;1.20;;
65039;SDS011;51606;45.000;38.612;2023-06-14T10:42:33;1.80;;;1.48;;
65039;SDS011;51606;45.000;38.612;2023-06-14T10:45:00;6.60;;;1.30;;
65039;SDS011;51606;45.000;38.612;2023-06-14T10:47:35;5.07;;;1.25;;
65039;SDS011;51606;45.000;38.612;2023-06-14T10:50:04;2.78;;;1.45;;
65039;SDS011;51606;45.000;38.612;2023-06-14T10:52:33;1.63;;;1.17;;
65039;SDS011;51606;45.000;38.612;2023-06-14T10:57:52;2.75;;;1.27;;
65039;SDS011;51606;45.000;38.612;2023-06-14T11:00:24;2.97;;;1.40;;
65039;SDS011;51606;45.000;38.612;2023-06-14T11:05:50;6.00;;;1.65;;
65039;SDS011;51606;45.000;38.612;2023-06-14T11:08:24;1.90;;;1.05;;
65039;SDS011;51606;45.000;38.612;2023-06-14T11:11:07;1.85;;;1.02;;
65039;SDS011;51606;45.000;38.612;2023-06-14T11:13:34;1.42;;;0.98;;
65039;SDS011;51606;45.000;38.612;2023-06-14T11:16:09;1.10;;;0.82;;
65039;SDS011;51606;45.000;38.612;2023-06-14T11:18:40;8.95;;;1.17;;
65039;SDS011;51606;45.000;38.612;2023-06-14T11:21:07;1.27;;;1.00;;
65039;SDS011;51606;45.000;38.612;2023-06-14T11:23:37;0.93;;;0.85;;
65039;SDS011;51606;45.000;38.612;2023-06-14T11:26:03;1.83;;;1.00;;
65039;SDS011;51606;45.000;38.612;2023-06-14T11:28:39;2.17;;;1.25;;
65039;SDS011;51606;45.000;38.612;2023-06-14T11:31:06;2.22;;;1.17;;
65039;SDS011;51606;45.000;38.612;2023-06-14T11:33:33;16.23;;;1.30;;
65039;SDS011;51606;45.000;38.612;2023-06-14T11:36:03;2.13;;;1.48;;
65039;SDS011;51606;45.000;38.612;2023-06-14T11:38:36;2.38;;;1.33;;
65039;SDS011;51606;45.000;38.612;2023-06-14T11:41:03;1.60;;;1.08;;
65039;SDS011;51606;45.000;38.612;2023-06-14T11:43:29;2.97;;;1.33;;
65039;SDS011;51606;45.000;38.612;2023-06-14T11:45:58;4.38;;;1.70;;
65039;SDS011;51606;45.000;38.612;2023-06-14T11:48:38;1.90;;;1.05;;
65039;SDS011;51606;45.000;38.612;2023-06-14T11:51:05;2.35;;;1.35;;
65039;SDS011;51606;45.000;38.612;2023-06-14T11:53:31;2.97;;;1.30;;
65039;SDS011;51606;45.000;38.612;2023-06-14T11:55:58;2.75;;;1.27;;
65039;SDS011;51606;45.000;38.612;2023-06-14T11:58:25;8.30;;;1.55;;
65039;SDS011;51606;45.000;38.612;2023-06-14T12:00:53;4.47;;;1.90;;
65039;SDS011;51606;45.000;38.612;2023-06-14T12:03:23;4.80;;;2.70;;
65039;SDS011;51606;45.000;38.612;2023-06-14T12:06:07;11.50;;;2.40;;
65039;SDS011;51606;45.000;38.612;2023-06-14T12:08:38;3.42;;;1.98;;
65039;SDS011;51606;45.000;38.612;2023-06-14T12:11:06;5.25;;;2.40;;
65039;SDS011;51606;45.000;38.612;2023-06-14T12:13:39;3.10;;;1.80;;
65039;SDS011;51606;45.000;38.612;2023-06-14T12:16:08;1.95;;;1.75;;
65039;SDS011;51606;45.000;38.612;2023-06-14T12:18:38;6.28;;;2.45;;
65039;SDS011;51606;45.000;38.612;2023-06-14T12:21:06;2.90;;;1.73;;
65039;SDS011;51606;45.000;38.612;2023-06-14T12:23:46;2.28;;;1.85;;
65039;SDS011;51606;45.000;38.612;2023-06-14T12:26:15;3.72;;;1.65;;
65039;SDS011;51606;45.000;38.612;2023-06-14T12:28:42;1.75;;;1.55;;
65039;SDS011;51606;45.000;38.612;2023-06-14T12:31:13;3.03;;;1.40;;
65039;SDS011;51606;45.000;38.612;2023-06-14T12:33:41;2.25;;;1.60;;
65039;SDS011;51606;45.000;38.612;2023-06-14T12:36:08;3.70;;;1.58;;
65039;SDS011;51606;45.000;38.612;2023-06-14T12:38:36;3.90;;;1.90;;
65039;SDS011;51606;45.000;38.612;2023-06-14T12:41:03;4.57;;;1.88;;
65039;SDS011;51606;45.000;38.612;2023-06-14T12:43:30;1.60;;;1.50;;
65039;SDS011;51606;45.000;38.612;2023-06-14T12:45:57;2.53;;;1.77;;
65039;SDS011;51606;45.000;38.612;2023-06-14T12:48:23;6.35;;;2.17;;
65039;SDS011;51606;45.000;38.612;2023-06-14T12:50:50;3.83;;;2.28;;
65039;SDS011;51606;45.000;38.612;2023-06-14T12:53:16;5.40;;;2.50;;
65039;SDS011;51606;45.000;38.612;2023-06-14T12:55:43;2.83;;;2.28;;
65039;SDS011;51606;45.000;38.612;2023-06-14T12:58:09;3.88;;;2.45;;
65039;SDS011;51606;45.000;38.612;2023-06-14T13:00:38;4.05;;;1.98;;
65039;SDS011;51606;45.000;38.612;2023-06-14T13:03:05;6.93;;;1.88;;
65039;SDS011;51606;45.000;38.612;2023-06-14T13:05:31;4.68;;;1.90;;
65039;SDS011;51606;45.000;38.612;2023-06-14T13:07:59;3.03;;;1.88;;
65039;SDS011;51606;45.000;38.612;2023-06-14T13:10:26;2.25;;;1.65;;
65039;SDS011;51606;45.000;38.612;2023-06-14T13:12:53;3.00;;;1.58;;
65039;SDS011;51606;45.000;38.612;2023-06-14T13:15:20;3.42;;;2.00;;
65039;SDS011;51606;45.000;38.612;2023-06-14T13:17:47;3.60;;;2.03;;
65039;SDS011;51606;45.000;38.612;2023-06-14T13:20:14;12.73;;;1.88;;
65039;SDS011;51606;45.000;38.612;2023-06-14T13:22:41;4.13;;;2.00;;
65039;SDS011;51606;45.000;38.612;2023-06-14T13:25:08;3.85;;;1.73;;
65039;SDS011;51606;45.000;38.612;2023-06-14T13:27:35;5.90;;;2.00;;
65039;SDS011;51606;45.000;38.612;2023-06-14T13:30:02;7.65;;;2.50;;
65039;SDS011;51606;45.000;38.612;2023-06-14T13:32:30;2.33;;;1.80;;
65039;SDS011;51606;45.000;38.612;2023-06-14T13:34:57;3.55;;;2.25;;
65039;SDS011;51606;45.000;38.612;2023-06-14T13:37:24;3.85;;;2.13;;
65039;SDS011;51606;45.000;38.612;2023-06-14T13:39:51;5.53;;;2.17;;
65039;SDS011;51606;45.000;38.612;2023-06-14T13:42:17;3.00;;;2.10;;
65039;SDS011;51606;45.000;38.612;2023-06-14T13:44:44;5.72;;;2.30;;
65039;SDS011;51606;45.000;38.612;2023-06-14T13:47:10;3.40;;;2.38;;
65039;SDS011;51606;45.000;38.612;2023-06-14T13:49:36;2.55;;;2.00;;
65039;SDS011;51606;45.000;38.612;2023-06-14T13:52:03;6.05;;;2.53;;
65039;SDS011;51606;45.000;38.612;2023-06-14T13:54:30;2.75;;;2.08;;
65039;SDS011;51606;45.000;38.612;2023-06-14T13:56:56;3.15;;;1.88;;
65039;SDS011;51606;45.000;38.612;2023-06-14T13:59:23;3.83;;;2.40;;
65039;SDS011;51606;45.000;38.612;2023-06-14T14:01:49;8.68;;;2.33;;
65039;SDS011;51606;45.000;38.612;2023-06-14T14:04:16;3.67;;;2.13;;
65039;SDS011;51606;45.000;38.612;2023-06-14T14:06:42;3.35;;;1.67;;
65039;SDS011;51606;45.000;38.612;2023-06-14T14:09:08;3.08;;;1.65;;
65039;SDS011;51606;45.000;38.612;2023-06-14T14:11:35;2.00;;;1.80;;
65039;SDS011;51606;45.000;38.612;2023-06-14T14:14:02;2.05;;;1.83;;
65039;SDS011;51606;45.000;38.612;2023-06-14T14:16:30;5.80;;;2.10;;
65039;SDS011;51606;45.000;38.612;2023-06-14T14:18:57;4.03;;;1.90;;
65039;SDS011;51606;45.000;38.612;2023-06-14T14:21:23;4.65;;;2.10;;
65039;SDS011;51606;45.000;38.612;2023-06-14T14:23:51;2.20;;;1.58;;
65039;SDS011;51606;45.000;38.612;2023-06-14T14:26:17;3.40;;;1.85;;
65039;SDS011;51606;45.000;38.612;2023-06-14T14:28:43;5.13;;;1.80;;
65039;SDS011;51606;45.000;38.612;2023-06-14T14:31:10;2.42;;;1.73;;
65039;SDS011;51606;45.000;38.612;2023-06-14T14:33:36;2.67;;;1.50;;
65039;SDS011;51606;45.000;38.612;2023-06-14T14:36:02;3.92;;;2.50;;
65039;SDS011;51606;45.000;38.612;2023-06-14T14:38:30;7.05;;;4.40;;
65039;SDS011;51606;45.000;38.612;2023-06-14T14:40:57;3.58;;;2.10;;
65039;SDS011;51606;45.000;38.612;2023-06-14T14:43:23;2.90;;;1.75;;
65039;SDS011;51606;45.000;38.612;2023-06-14T14:45:49;2.08;;;1.60;;
65039;SDS011;51606;45.000;38.612;2023-06-14T14:48:16;2.83;;;1.88;;
65039;SDS011;51606;45.000;38.612;2023-06-14T14:50:42;3.28;;;1.77;;
65039;SDS011;51606;45.000;38.612;2023-06-14T14:53:09;9.25;;;1.77;;
65039;SDS011;51606;45.000;38.612;2023-06-14T14:55:35;2.63;;;1.50;;
65039;SDS011;51606;45.000;38.612;2023-06-14T14:58:03;2.10;;;1.58;;
65039;SDS011;51606;45.000;38.612;2023-06-14T15:00:29;2.22;;;1.70;;
65039;SDS011;51606;45.000;38.612;2023-06-14T15:02:56;3.13;;;1.50;;
65039;SDS011;51606;45.000;38.612;2023-06-14T15:05:22;4.43;;;2.40;;
65039;SDS011;51606;45.000;38.612;2023-06-14T15:07:48;1.92;;;1.60;;
65039;SDS011;51606;45.000;38.612;2023-06-14T15:10:15;4.03;;;1.85;;
65039;SDS011;51606;45.000;38.612;2023-06-14T15:12:42;2.20;;;1.63;;
65039;SDS011;51606;45.000;38.612;2023-06-14T15:15:08;2.08;;;1.52;;
65039;SDS011;51606;45.000;38.612;2023-06-14T15:17:35;3.67;;;1.52;;
65039;SDS011;51606;45.000;38.612;2023-06-14T15:20:02;1.55;;;1.33;;
65039;SDS011;51606;45.000;38.612;2023-06-14T15:22:28;5.45;;;1.63;;
65039;SDS011;51606;45.000;38.612;2023-06-14T15:24:55;2.38;;;1.20;;
65039;SDS011;51606;45.000;38.612;2023-06-14T15:27:22;2.80;;;1.70;;
65039;SDS011;51606;45.000;38.612;2023-06-14T15:29:48;3.38;;;1.55;;
65039;SDS011;51606;45.000;38.612;2023-06-14T15:32:15;1.60;;;1.33;;
65039;SDS011;51606;45.000;38.612;2023-06-14T15:34:41;3.83;;;1.45;;
65039;SDS011;51606;45.000;38.612;2023-06-14T15:37:08;1.65;;;1.55;;
65039;SDS011;51606;45.000;38.612;2023-06-14T15:39:34;4.72;;;1.92;;
65039;SDS011;51606;45.000;38.612;2023-06-14T15:50:20;2.65;;;1.33;;
65039;SDS011;51606;45.000;38.612;2023-06-14T15:52:33;1.45;;;1.30;;
65039;SDS011;51606;45.000;38.612;2023-06-14T15:55:00;1.98;;;1.77;;
65039;SDS011;51606;45.000;38.612;2023-06-14T15:57:27;2.17;;;1.50;;
65039;SDS011;51606;45.000;38.612;2023-06-14T15:59:53;1.65;;;1.40;;
65039;SDS011;51606;45.000;38.612;2023-06-14T16:02:20;2.42;;;1.80;;
65039;SDS011;51606;45.000;38.612;2023-06-14T16:04:46;2.50;;;1.63;;
65039;SDS011;51606;45.000;38.612;2023-06-14T16:07:13;2.45;;;1.52;;
65039;SDS011;51606;45.000;38.612;2023-06-14T16:09:40;2.00;;;1.52;;
65039;SDS011;51606;45.000;38.612;2023-06-14T16:12:06;3.65;;;1.80;;
65039;SDS011;51606;45.000;38.612;2023-06-14T16:14:34;2.10;;;1.50;;
65039;SDS011;51606;45.000;38.612;2023-06-14T16:17:00;5.05;;;1.70;;
65039;SDS011;51606;45.000;38.612;2023-06-14T16:19:27;16.40;;;1.92;;
65039;SDS011;51606;45.000;38.612;2023-06-14T16:21:53;2.63;;;1.42;;
65039;SDS011;51606;45.000;38.612;2023-06-14T16:24:20;2.42;;;1.35;;
65039;SDS011;51606;45.000;38.612;2023-06-14T16:26:46;3.45;;;1.67;;
65039;SDS011;51606;45.000;38.612;2023-06-14T16:29:13;1.92;;;1.50;;
65039;SDS011;51606;45.000;38.612;2023-06-14T16:31:39;4.18;;;2.00;;
65039;SDS011;51606;45.000;38.612;2023-06-14T16:34:06;4.60;;;1.60;;
65039;SDS011;51606;45.000;38.612;2023-06-14T16:36:37;1.85;;;1.25;;
65039;SDS011;51606;45.000;38.612;2023-06-14T16:39:03;6.32;;;2.00;;
65039;SDS011;51606;45.000;38.612;2023-06-14T16:41:30;3.45;;;1.60;;
65039;SDS011;51606;45.000;38.612;2023-06-14T16:43:56;2.05;;;1.60;;